createdAt,value
2023-02-18T00:01:42.077Z,10.00
2023-02-18T00:03:44.559Z,10.00
2023-02-18T00:05:47.037Z,10.10
2023-02-18T00:07:49.653Z,10.10
2023-02-18T00:09:52.122Z,10.10
2023-02-18T00:11:54.663Z,10.10
2023-02-18T00:13:58.029Z,10.00
2023-02-18T00:16:01.848Z,10.10
2023-02-18T00:18:04.722Z,10.10
2023-02-18T00:20:08.839Z,10.10
2023-02-18T00:22:11.271Z,10.10
2023-02-18T00:24:15.175Z,10.20
2023-02-18T00:26:18.731Z,10.20
2023-02-18T00:28:21.634Z,10.30
2023-02-18T00:30:24.299Z,10.30
2023-02-18T00:32:26.885Z,10.30
2023-02-18T00:34:29.463Z,10.40
2023-02-18T00:36:31.939Z,10.40
2023-02-18T00:38:35.119Z,10.40
2023-02-18T00:40:38.056Z,10.40
2023-02-18T00:42:40.575Z,10.40
2023-02-18T00:44:44.382Z,10.40
2023-02-18T00:46:47.640Z,10.40
2023-02-18T00:48:50.116Z,10.40
2023-02-18T00:50:52.584Z,10.40
2023-02-18T00:52:55.144Z,10.40
2023-02-18T00:54:57.771Z,10.40
2023-02-18T00:57:00.230Z,10.40
2023-02-18T00:59:03.139Z,10.40
2023-02-18T01:01:07.627Z,10.40
2023-02-18T01:03:10.570Z,10.40
2023-02-18T01:05:13.074Z,10.40
2023-02-18T01:07:15.538Z,10.40
2023-02-18T01:09:18.445Z,10.40
2023-02-18T01:11:20.937Z,10.40
2023-02-18T01:13:23.824Z,10.40
2023-02-18T01:15:26.588Z,10.40
2023-02-18T01:17:29.159Z,10.40
2023-02-18T01:19:31.773Z,10.40
2023-02-18T01:21:35.767Z,10.40
2023-02-18T01:23:38.918Z,10.40
2023-02-18T01:25:42.040Z,10.40
2023-02-18T01:27:44.622Z,10.40
2023-02-18T01:29:47.203Z,10.40
2023-02-18T01:31:49.965Z,10.40
2023-02-18T01:33:52.681Z,10.40
2023-02-18T01:35:56.178Z,10.40
2023-02-18T01:37:59.709Z,10.40
2023-02-18T01:40:02.497Z,10.40
2023-02-18T01:42:05.506Z,10.40
2023-02-18T01:44:20.008Z,10.40
2023-02-18T01:46:22.631Z,10.40
2023-02-18T01:48:27.388Z,10.40
2023-02-18T01:50:30.381Z,10.50
2023-02-18T01:52:33.101Z,10.40
2023-02-18T01:54:39.111Z,10.40
2023-02-18T01:56:43.515Z,10.40
2023-02-18T01:58:47.804Z,10.40
2023-02-18T02:00:50.489Z,10.40
2023-02-18T02:02:53.362Z,10.40
2023-02-18T02:04:56.111Z,10.40
2023-02-18T02:06:58.694Z,10.40
2023-02-18T02:09:04.582Z,10.40
2023-02-18T02:11:10.150Z,10.40
2023-02-18T02:13:14.763Z,10.40
2023-02-18T02:15:33.339Z,10.40
2023-02-18T02:17:38.681Z,10.40
2023-02-18T02:19:50.879Z,10.40
2023-02-18T02:22:02.882Z,10.40
2023-02-18T02:24:36.595Z,10.40
2023-02-18T02:29:26.010Z,10.40
2023-02-18T02:31:35.189Z,10.40
2023-02-18T02:33:43.587Z,10.40
2023-02-18T02:35:47.004Z,10.40
2023-02-18T02:37:51.409Z,10.40
2023-02-18T02:39:58.908Z,10.50
2023-02-18T02:42:03.279Z,10.50
2023-02-18T02:44:09.429Z,10.40
2023-02-18T02:46:14.001Z,10.40
2023-02-18T02:48:18.648Z,10.40
2023-02-18T02:50:23.155Z,10.40
2023-02-18T02:52:27.467Z,10.40
2023-02-18T02:54:30.290Z,10.40
2023-02-18T02:56:32.961Z,10.40
2023-02-18T02:58:37.055Z,10.40
2023-02-18T03:00:41.563Z,10.40
2023-02-18T03:02:49.443Z,10.40
2023-02-18T03:05:00.368Z,10.40
2023-02-18T03:07:11.125Z,10.40
2023-02-18T03:09:16.732Z,10.40
2023-02-18T03:11:19.828Z,10.40
2023-02-18T03:13:26.394Z,10.40
2023-02-18T03:15:31.206Z,10.50
2023-02-18T03:17:37.055Z,10.40
2023-02-18T03:19:41.508Z,10.40
2023-02-18T03:21:45.638Z,10.40
2023-02-18T03:23:51.451Z,10.40
2023-02-18T03:25:55.241Z,10.30
2023-02-18T03:28:00.792Z,10.30
2023-02-18T03:30:06.088Z,10.40
2023-02-18T03:32:10.585Z,10.40
2023-02-18T03:34:15.123Z,10.40
2023-02-18T03:36:18.835Z,10.40
2023-02-18T03:38:23.327Z,10.40
2023-02-18T03:40:26.037Z,10.40
2023-02-18T03:42:29.304Z,10.40
2023-02-18T03:44:31.940Z,10.40
2023-02-18T03:46:35.512Z,10.40
2023-02-18T03:48:38.480Z,10.30
2023-02-18T03:50:41.067Z,10.40
2023-02-18T03:52:43.702Z,10.40
2023-02-18T03:54:46.290Z,10.40
2023-02-18T03:56:48.795Z,10.40
2023-02-18T03:58:51.255Z,10.40
2023-02-18T04:00:53.834Z,10.40
2023-02-18T04:02:56.539Z,10.40
2023-02-18T04:05:00.159Z,10.40
2023-02-18T04:07:02.690Z,10.40
2023-02-18T04:09:07.067Z,10.40
2023-02-18T04:11:09.685Z,10.40
2023-02-18T04:13:12.153Z,10.40
2023-02-18T04:15:14.854Z,10.40
2023-02-18T04:17:17.836Z,10.40
2023-02-18T04:19:20.317Z,10.40
2023-02-18T04:21:22.944Z,10.40
2023-02-18T04:23:25.756Z,10.40
2023-02-18T04:25:28.220Z,10.40
2023-02-18T04:27:30.739Z,10.40
2023-02-18T04:29:33.318Z,10.40
2023-02-18T04:31:35.852Z,10.40
2023-02-18T04:33:38.406Z,10.40
2023-02-18T04:35:42.220Z,10.50
2023-02-18T04:37:44.778Z,10.40
2023-02-18T04:39:47.237Z,10.50
2023-02-18T04:41:49.755Z,10.40
2023-02-18T04:43:52.259Z,10.40
2023-02-18T04:45:54.829Z,10.50
2023-02-18T04:47:57.390Z,10.50
2023-02-18T04:49:59.885Z,10.50
2023-02-18T04:52:02.801Z,10.50
2023-02-18T04:54:05.573Z,10.50
2023-02-18T04:56:08.300Z,10.50
2023-02-18T04:58:10.948Z,10.50
2023-02-18T05:00:15.985Z,10.50
2023-02-18T05:02:18.488Z,10.50
2023-02-18T05:04:21.403Z,10.50
2023-02-18T05:06:24.117Z,10.50
2023-02-18T05:08:26.808Z,10.50
2023-02-18T05:10:29.385Z,10.40
2023-02-18T05:12:31.940Z,10.50
2023-02-18T05:14:34.424Z,10.50
2023-02-18T05:16:36.917Z,10.50
2023-02-18T05:18:39.557Z,10.50
2023-02-18T05:20:42.041Z,10.50
2023-02-18T05:22:44.513Z,10.50
2023-02-18T05:24:47.033Z,10.50
2023-02-18T05:26:49.483Z,10.50
2023-02-18T05:28:52.110Z,10.50
2023-02-18T05:30:54.792Z,10.50
2023-02-18T05:32:57.289Z,10.50
2023-02-18T05:34:59.790Z,10.50
2023-02-18T05:37:02.341Z,10.50
2023-02-18T05:39:05.416Z,10.50
2023-02-18T05:41:07.923Z,10.50
2023-02-18T05:43:10.739Z,10.50
2023-02-18T05:45:13.239Z,10.40
2023-02-18T05:47:15.739Z,10.50
2023-02-18T05:49:18.230Z,10.50
2023-02-18T05:51:20.716Z,10.50
2023-02-18T05:53:23.207Z,10.50
2023-02-18T05:55:25.723Z,10.40
2023-02-18T05:57:28.230Z,10.50
2023-02-18T05:59:30.718Z,10.40
2023-02-18T06:01:33.202Z,10.40
2023-02-18T06:03:35.693Z,10.50
2023-02-18T06:05:39.161Z,10.40
2023-02-18T06:07:41.601Z,10.40
2023-02-18T06:09:44.285Z,10.40
2023-02-18T06:11:46.781Z,10.40
2023-02-18T06:13:49.284Z,10.40
2023-02-18T06:15:53.010Z,10.40
2023-02-18T06:17:55.554Z,10.00
2023-02-18T06:19:58.035Z,10.40
2023-02-18T06:22:00.571Z,10.40
2023-02-18T06:24:03.157Z,10.40
2023-02-18T06:26:05.730Z,10.40
2023-02-18T06:28:08.496Z,10.40
2023-02-18T06:30:11.453Z,10.40
2023-02-18T06:32:14.073Z,10.40
2023-02-18T06:34:17.088Z,10.40
2023-02-18T06:36:19.648Z,10.40
2023-02-18T06:38:23.151Z,10.40
2023-02-18T06:40:25.795Z,10.40
2023-02-18T06:42:28.292Z,10.40
2023-02-18T06:44:30.843Z,10.40
2023-02-18T06:46:33.369Z,10.40
2023-02-18T06:48:35.861Z,10.40
2023-02-18T06:50:38.627Z,10.40
2023-02-18T06:52:41.208Z,10.40
2023-02-18T06:54:43.818Z,10.40
2023-02-18T06:56:46.287Z,10.40
2023-02-18T06:58:48.801Z,10.40
2023-02-18T07:00:51.333Z,10.40
2023-02-18T07:02:53.895Z,10.40
2023-02-18T07:04:56.417Z,10.40
2023-02-18T07:06:58.911Z,10.40
2023-02-18T07:09:01.402Z,10.40
2023-02-18T07:11:04.097Z,10.40
2023-02-18T07:13:06.616Z,10.40
2023-02-18T07:15:09.893Z,10.40
2023-02-18T07:17:12.391Z,10.40
2023-02-18T07:19:15.095Z,10.50
2023-02-18T07:21:17.699Z,10.40
2023-02-18T07:23:21.124Z,10.40
2023-02-18T07:25:23.931Z,10.30
2023-02-18T07:27:26.427Z,10.40
2023-02-18T07:29:31.273Z,10.40
2023-02-18T07:31:35.379Z,10.40
2023-02-18T07:33:38.619Z,10.40
2023-02-18T07:35:41.967Z,10.40
2023-02-18T07:37:45.561Z,10.40
2023-02-18T07:39:48.169Z,10.40
2023-02-18T07:41:51.992Z,10.40
2023-02-18T07:43:56.687Z,10.40
2023-02-18T07:46:01.606Z,10.30
2023-02-18T07:48:04.465Z,10.40
2023-02-18T07:50:08.315Z,10.40
2023-02-18T07:52:11.992Z,10.40
2023-02-18T07:54:14.655Z,10.40
2023-02-18T07:56:18.158Z,10.40
2023-02-18T07:58:22.419Z,10.40
2023-02-18T08:00:24.933Z,10.40
2023-02-18T08:02:27.497Z,10.40
2023-02-18T08:04:30.102Z,10.40
2023-02-18T08:06:35.185Z,10.30
2023-02-18T08:08:37.654Z,10.30
2023-02-18T08:10:40.238Z,10.30
2023-02-18T08:12:42.709Z,10.30
2023-02-18T08:14:45.186Z,10.30
2023-02-18T08:16:47.707Z,10.40
2023-02-18T08:18:50.822Z,10.30
2023-02-18T08:20:53.710Z,10.30
2023-02-18T08:22:56.219Z,10.30
2023-02-18T08:24:58.681Z,10.30
2023-02-18T08:27:01.842Z,10.30
2023-02-18T08:29:04.539Z,10.30
2023-02-18T08:31:07.402Z,10.40
2023-02-18T08:33:10.146Z,10.30
2023-02-18T08:35:12.744Z,10.30
2023-02-18T08:37:15.271Z,10.30
2023-02-18T08:39:17.779Z,10.30
2023-02-18T08:41:20.413Z,10.40
2023-02-18T08:43:23.013Z,10.30
2023-02-18T08:45:25.513Z,10.30
2023-02-18T08:48:18.754Z,10.40
2023-02-18T08:49:32.375Z,10.30
2023-02-18T08:51:34.869Z,10.30
2023-02-18T08:53:37.353Z,10.40
2023-02-18T08:55:40.663Z,10.40
2023-02-18T08:57:43.200Z,10.40
2023-02-18T08:59:45.701Z,10.40
2023-02-18T09:01:48.225Z,10.30
2023-02-18T09:03:50.735Z,10.30
2023-02-18T09:05:53.287Z,10.30
2023-02-18T09:07:55.980Z,10.30
2023-02-18T09:09:58.516Z,10.40
2023-02-18T09:12:01.138Z,10.40
2023-02-18T09:14:03.637Z,10.50
2023-02-18T09:16:07.578Z,10.40
2023-02-18T09:18:10.226Z,10.40
2023-02-18T09:20:18.176Z,10.40
2023-02-18T09:22:21.283Z,10.40
2023-02-18T09:24:24.667Z,10.40
2023-02-18T09:26:27.461Z,10.40
2023-02-18T09:28:49.173Z,10.40
2023-02-18T09:30:53.643Z,10.40
2023-02-18T09:32:56.195Z,10.30
2023-02-18T09:34:58.785Z,10.20
2023-02-18T09:37:01.260Z,10.10
2023-02-18T09:39:03.829Z,10.10
2023-02-18T09:41:08.343Z,10.10
2023-02-18T09:43:13.632Z,10.00
2023-02-18T09:45:16.155Z,10.00
2023-02-18T09:47:20.561Z,10.00
2023-02-18T09:49:24.890Z,10.00
2023-02-18T09:51:27.537Z,10.10
2023-02-18T09:53:30.276Z,10.00
2023-02-18T09:55:35.580Z,10.00
2023-02-18T09:57:39.932Z,10.00
2023-02-18T09:59:43.801Z,10.10
2023-02-18T10:01:47.723Z,10.10
2023-02-18T10:03:50.272Z,10.10
2023-02-18T10:05:57.488Z,10.10
2023-02-18T10:08:02.663Z,10.10
2023-02-18T10:10:09.442Z,10.10
2023-02-18T10:12:20.577Z,10.10
2023-02-18T10:14:25.516Z,10.10
2023-02-18T10:16:29.625Z,10.10
2023-02-18T10:18:35.119Z,10.00
2023-02-18T10:20:39.152Z,10.00
2023-02-18T10:22:44.082Z,10.00
2023-02-18T10:24:48.510Z,10.00
2023-02-18T10:26:51.097Z,10.00
2023-02-18T10:28:54.631Z,10.00
2023-02-18T10:30:59.857Z,10.00
2023-02-18T10:33:04.296Z,10.00
2023-02-18T10:35:08.747Z,10.00
2023-02-18T10:37:16.616Z,10.00
2023-02-18T10:39:29.859Z,10.00
2023-02-18T10:41:34.704Z,9.90
2023-02-18T10:43:39.364Z,10.00
2023-02-18T10:45:43.969Z,10.00
2023-02-18T10:47:49.139Z,9.90
2023-02-18T10:49:57.492Z,9.90
2023-02-18T10:52:02.820Z,9.90
2023-02-18T10:54:06.940Z,9.90
2023-02-18T10:56:14.392Z,9.90
2023-02-18T10:58:25.649Z,9.80
2023-02-18T11:00:29.920Z,9.80
2023-02-18T11:02:32.771Z,9.80
2023-02-18T11:04:37.294Z,9.80
2023-02-18T11:06:41.178Z,9.80
2023-02-18T11:08:45.515Z,9.90
2023-02-18T11:10:48.814Z,9.90
2023-02-18T11:12:52.900Z,9.90
2023-02-18T11:15:09.046Z,9.90
2023-02-18T11:17:22.433Z,10.40
2023-02-18T11:19:35.253Z,9.80
2023-02-18T11:21:38.641Z,9.80
2023-02-18T11:23:48.119Z,9.90
2023-02-18T11:25:55.577Z,9.80
2023-02-18T11:27:58.970Z,9.80
2023-02-18T11:30:02.761Z,9.80
2023-02-18T11:32:07.385Z,9.80
2023-02-18T11:34:14.823Z,9.80
2023-02-18T11:36:23.223Z,9.80
2023-02-18T11:38:27.550Z,9.80
2023-02-18T11:40:31.446Z,9.80
2023-02-18T11:42:34.127Z,9.80
2023-02-18T11:44:38.299Z,9.80
2023-02-18T11:46:42.593Z,9.80
2023-02-18T11:48:45.644Z,9.80
2023-02-18T11:50:50.693Z,9.80
2023-02-18T11:52:54.282Z,9.80
2023-02-18T11:55:00.686Z,9.90
2023-02-18T11:57:04.556Z,9.90
2023-02-18T11:59:10.706Z,9.90
2023-02-18T12:01:15.012Z,9.80
2023-02-18T12:03:19.999Z,9.90
2023-02-18T12:05:24.344Z,9.90
2023-02-18T12:07:28.490Z,9.90
2023-02-18T12:09:32.901Z,9.90
2023-02-18T12:11:37.211Z,9.90
2023-02-18T12:13:41.781Z,9.90
2023-02-18T12:15:47.986Z,9.90
2023-02-18T12:17:53.698Z,9.90
2023-02-18T12:20:01.800Z,9.90
2023-02-18T12:22:07.279Z,9.90
2023-02-18T12:24:29.050Z,10.00
2023-02-18T12:26:33.396Z,9.90
2023-02-18T12:28:40.459Z,9.90
2023-02-18T12:30:51.910Z,9.90
2023-02-18T12:32:56.315Z,9.90
2023-02-18T12:35:03.506Z,9.90
2023-02-18T12:37:08.802Z,9.90
2023-02-18T12:39:13.871Z,9.90
2023-02-18T12:41:26.148Z,9.90
2023-02-18T12:43:32.443Z,9.90
2023-02-18T12:45:39.273Z,9.90
2023-02-18T12:47:46.032Z,9.90
2023-02-18T12:49:58.323Z,9.80
2023-02-18T12:52:09.111Z,9.80
2023-02-18T12:54:16.389Z,9.90
2023-02-18T12:56:44.154Z,9.90
2023-02-18T12:58:49.750Z,9.90
2023-02-18T13:01:00.070Z,9.90
2023-02-18T13:03:21.073Z,9.90
2023-02-18T13:05:27.926Z,9.90
2023-02-18T13:07:34.882Z,9.90
2023-02-18T13:09:41.630Z,9.90
2023-02-18T13:11:47.061Z,9.90
2023-02-18T13:13:51.491Z,9.90
2023-02-18T13:15:55.762Z,9.90
2023-02-18T13:18:00.113Z,9.90
2023-02-18T13:20:05.031Z,10.00
2023-02-18T13:22:09.508Z,10.00
2023-02-18T13:24:13.626Z,10.00
2023-02-18T13:26:17.331Z,10.10
2023-02-18T13:28:23.271Z,10.10
2023-02-18T13:30:28.372Z,10.10
2023-02-18T13:32:32.987Z,10.10
2023-02-18T13:34:36.567Z,10.10
2023-02-18T13:36:43.289Z,10.10
2023-02-18T13:38:58.650Z,10.10
2023-02-18T13:41:01.735Z,10.10
2023-02-18T13:43:20.669Z,10.10
2023-02-18T13:45:25.745Z,10.10
2023-02-18T13:47:38.287Z,10.10
2023-02-18T13:49:41.181Z,10.10
2023-02-18T13:51:45.661Z,10.10
2023-02-18T13:53:51.746Z,10.10
2023-02-18T13:55:56.908Z,10.10
2023-02-18T13:57:59.604Z,10.10
2023-02-18T14:00:04.473Z,10.20
2023-02-18T14:02:30.166Z,10.20
2023-02-18T14:04:37.128Z,10.20
2023-02-18T14:06:41.590Z,10.10
2023-02-18T14:08:44.812Z,10.20
2023-02-18T14:10:58.879Z,10.20
2023-02-18T14:13:03.224Z,10.10
2023-02-18T14:15:23.862Z,10.10
2023-02-18T14:17:37.662Z,10.20
2023-02-18T14:19:40.568Z,10.10
2023-02-18T14:21:43.840Z,10.10
2023-02-18T14:23:56.727Z,10.20
2023-02-18T14:26:01.029Z,10.20
2023-02-18T14:28:04.678Z,10.20
2023-02-18T14:30:09.722Z,10.30
2023-02-18T14:32:14.379Z,10.10
2023-02-18T14:34:40.721Z,10.10
2023-02-18T14:36:45.395Z,10.20
2023-02-18T14:38:49.700Z,10.20
2023-02-18T14:40:56.243Z,10.20
2023-02-18T14:43:02.409Z,10.20
2023-02-18T14:45:18.128Z,10.20
2023-02-18T14:47:27.312Z,10.20
2023-02-18T14:49:36.754Z,10.20
2023-02-18T14:51:41.199Z,10.20
2023-02-18T14:53:44.585Z,10.20
2023-02-18T14:55:48.905Z,10.20
2023-02-18T14:57:52.533Z,10.30
2023-02-18T14:59:59.160Z,10.20
2023-02-18T15:02:01.872Z,10.20
2023-02-18T15:04:04.647Z,10.20
2023-02-18T15:06:21.243Z,10.30
2023-02-18T15:08:25.401Z,10.30
2023-02-18T15:10:34.442Z,10.30
2023-02-18T15:12:36.960Z,10.30
2023-02-18T15:14:41.056Z,10.30
2023-02-18T15:16:44.112Z,10.30
2023-02-18T15:18:48.960Z,10.40
2023-02-18T15:20:51.635Z,10.40
2023-02-18T15:22:55.075Z,10.40
2023-02-18T15:24:58.005Z,10.50
2023-02-18T15:27:02.676Z,10.40
2023-02-18T15:29:16.508Z,10.40
2023-02-18T15:31:21.261Z,10.40
2023-02-18T15:33:24.258Z,10.40
2023-02-18T15:35:29.171Z,10.40
2023-02-18T15:37:31.838Z,10.40
2023-02-18T15:39:36.730Z,10.40
2023-02-18T15:41:39.336Z,10.40
2023-02-18T15:43:45.348Z,10.50
2023-02-18T15:45:49.428Z,10.50
2023-02-18T15:47:53.535Z,10.40
2023-02-18T15:49:58.017Z,10.50
2023-02-18T15:52:01.429Z,10.50
2023-02-18T15:54:05.357Z,10.40
2023-02-18T15:56:09.724Z,10.50
2023-02-18T15:58:14.047Z,10.40
2023-02-18T16:00:19.255Z,10.40
2023-02-18T16:02:22.554Z,10.50
2023-02-18T16:04:26.863Z,10.40
2023-02-18T16:06:30.199Z,10.40
2023-02-18T16:08:32.695Z,10.40
2023-02-18T16:10:46.462Z,10.40
2023-02-18T16:12:51.016Z,10.40
2023-02-18T16:14:54.888Z,10.40
2023-02-18T16:17:01.043Z,10.40
2023-02-18T16:19:03.782Z,10.50
2023-02-18T16:21:09.214Z,10.60
2023-02-18T16:23:12.955Z,10.40
2023-02-18T16:25:17.637Z,10.50
2023-02-18T16:27:20.191Z,10.50
2023-02-18T16:29:24.350Z,10.50
2023-02-18T16:31:26.932Z,10.50
2023-02-18T16:33:29.677Z,10.50
2023-02-18T16:35:47.474Z,10.50
2023-02-18T16:37:39.768Z,10.50
2023-02-18T16:39:42.402Z,10.50
2023-02-18T16:41:45.115Z,10.60
2023-02-18T16:43:47.630Z,10.50
2023-02-18T16:45:51.155Z,10.50
2023-02-18T16:47:55.213Z,10.50
2023-02-18T16:49:58.208Z,10.60
2023-02-18T16:52:01.144Z,10.50
2023-02-18T16:54:03.655Z,10.60
2023-02-18T16:56:06.984Z,10.50
2023-02-18T16:58:09.687Z,10.50
2023-02-18T17:00:13.298Z,10.60
2023-02-18T17:02:17.782Z,10.60
2023-02-18T17:04:20.551Z,10.60
2023-02-18T17:06:23.354Z,10.60
2023-02-18T17:08:26.857Z,10.60
2023-02-18T17:10:29.376Z,10.60
2023-02-18T17:12:31.896Z,10.60
2023-02-18T17:14:34.417Z,10.70
2023-02-18T17:16:37.100Z,10.60
2023-02-18T17:18:40.444Z,10.60
2023-02-18T17:20:43.152Z,10.60
2023-02-18T17:22:45.711Z,10.60
2023-02-18T17:24:48.213Z,10.60
2023-02-18T17:26:50.848Z,10.60
2023-02-18T17:28:54.647Z,10.70
2023-02-18T17:30:58.144Z,10.60
2023-02-18T17:33:03.152Z,10.60
2023-02-18T17:35:06.427Z,10.60
2023-02-18T17:37:12.143Z,10.60
2023-02-18T17:39:16.705Z,10.60
2023-02-18T17:41:19.309Z,10.60
2023-02-18T17:43:24.179Z,10.60
2023-02-18T17:45:28.414Z,10.60
2023-02-18T17:47:30.928Z,10.60
2023-02-18T17:49:33.571Z,10.50
2023-02-18T17:51:37.722Z,10.60
2023-02-18T17:53:40.522Z,10.60
2023-02-18T17:55:43.862Z,10.60
2023-02-18T17:57:46.549Z,10.50
2023-02-18T17:59:49.085Z,10.60
2023-02-18T18:01:51.576Z,10.60
2023-02-18T18:03:54.112Z,10.50
2023-02-18T18:05:57.115Z,10.50
2023-02-18T18:07:59.720Z,10.50
2023-02-18T18:10:02.236Z,10.50
2023-02-18T18:12:05.470Z,10.50
2023-02-18T18:14:09.543Z,10.50
2023-02-18T18:16:13.125Z,10.50
2023-02-18T18:18:17.792Z,10.50
2023-02-18T18:20:21.148Z,10.50
2023-02-18T18:22:23.757Z,10.50
2023-02-18T18:24:27.026Z,10.40
2023-02-18T18:26:30.099Z,10.40
2023-02-18T18:28:33.424Z,10.40
2023-02-18T18:30:37.445Z,10.50
2023-02-18T18:32:47.595Z,10.50
2023-02-18T18:34:50.241Z,10.50
2023-02-18T18:36:52.778Z,10.40
2023-02-18T18:38:55.299Z,10.50
2023-02-18T18:40:57.793Z,10.50
2023-02-18T18:43:01.225Z,10.50
2023-02-18T18:45:04.460Z,10.50
2023-02-18T18:47:07.092Z,10.50
2023-02-18T18:49:09.629Z,10.50
2023-02-18T18:51:15.369Z,10.50
2023-02-18T18:53:19.532Z,10.50
2023-02-18T18:55:24.028Z,10.50
2023-02-18T18:57:26.860Z,10.50
2023-02-18T18:59:29.368Z,10.50
2023-02-18T19:01:32.586Z,10.60
2023-02-18T19:03:36.901Z,10.60
2023-02-18T19:05:40.227Z,10.60
2023-02-18T19:07:42.834Z,10.60
2023-02-18T19:09:45.345Z,10.50
2023-02-18T19:11:47.988Z,10.50
2023-02-18T19:13:50.503Z,10.50
2023-02-18T19:15:54.940Z,10.60
2023-02-18T19:17:57.829Z,10.60
2023-02-18T19:20:00.369Z,10.60
2023-02-18T19:22:03.051Z,10.60
2023-02-18T19:24:05.925Z,10.60
2023-02-18T19:26:08.568Z,10.50
2023-02-18T19:28:13.201Z,10.60
2023-02-18T19:30:17.313Z,10.60
2023-02-18T19:32:19.849Z,10.60
2023-02-18T19:34:22.505Z,10.50
2023-02-18T19:36:25.042Z,10.50
2023-02-18T19:38:27.604Z,10.50
2023-02-18T19:40:30.558Z,10.50
2023-02-18T19:42:45.490Z,10.50
2023-02-18T19:44:48.054Z,10.10
2023-02-18T19:46:50.672Z,10.50
2023-02-18T19:48:53.394Z,10.50
2023-02-18T19:50:55.861Z,10.50
2023-02-18T19:53:10.344Z,10.50
2023-02-18T19:55:13.006Z,10.50
2023-02-18T19:57:15.594Z,10.50
2023-02-18T19:59:18.105Z,10.50
2023-02-18T20:01:20.668Z,10.50
2023-02-18T20:03:23.240Z,10.50
2023-02-18T20:05:25.780Z,10.50
2023-02-18T20:07:28.690Z,10.50
2023-02-18T20:09:31.274Z,10.40
2023-02-18T20:11:33.823Z,10.40
2023-02-18T20:13:36.432Z,10.40
2023-02-18T20:15:40.002Z,10.40
2023-02-18T20:17:42.671Z,10.40
2023-02-18T20:19:45.615Z,10.40
2023-02-18T20:21:48.144Z,10.40
2023-02-18T20:23:55.539Z,10.40
2023-02-18T20:25:59.859Z,10.40
2023-02-18T20:28:05.578Z,10.40
2023-02-18T20:30:10.288Z,10.40
2023-02-18T20:32:12.925Z,10.40
2023-02-18T20:34:19.729Z,10.40
2023-02-18T20:36:22.995Z,10.50
2023-02-18T20:38:25.568Z,10.50
2023-02-18T20:40:28.090Z,10.40
2023-02-18T20:42:30.576Z,10.40
2023-02-18T20:44:33.164Z,10.40
2023-02-18T20:46:36.911Z,10.40
2023-02-18T20:48:39.408Z,10.50
2023-02-18T20:50:42.040Z,10.40
2023-02-18T20:52:44.631Z,10.40
2023-02-18T20:54:47.157Z,10.40
2023-02-18T20:57:01.911Z,10.40
2023-02-18T20:59:04.536Z,10.40
2023-02-18T21:01:08.315Z,10.40
2023-02-18T21:03:10.896Z,10.30
2023-02-18T21:05:13.610Z,10.40
2023-02-18T21:07:16.156Z,10.40
2023-02-18T21:09:18.673Z,10.40
2023-02-18T21:11:21.785Z,10.40
2023-02-18T21:13:25.184Z,10.40
2023-02-18T21:15:27.908Z,10.30
2023-02-18T21:17:30.389Z,10.30
2023-02-18T21:19:32.877Z,10.30
2023-02-18T21:21:35.755Z,10.30
2023-02-18T21:23:38.426Z,10.30
2023-02-18T21:25:40.944Z,10.30
2023-02-18T21:27:43.445Z,10.30
2023-02-18T21:29:45.991Z,10.30
2023-02-18T21:31:49.070Z,10.30
2023-02-18T21:33:52.090Z,10.30
2023-02-18T21:35:55.662Z,10.40
2023-02-18T21:37:58.272Z,10.30
2023-02-18T21:40:01.744Z,10.30
2023-02-18T21:42:06.130Z,10.30
2023-02-18T21:44:08.952Z,10.30
2023-02-18T21:46:13.445Z,10.30
2023-02-18T21:48:33.905Z,10.30
2023-02-18T21:50:36.417Z,10.30
2023-02-18T21:52:39.134Z,10.30
2023-02-18T21:54:43.824Z,10.30
2023-02-18T21:56:46.436Z,10.30
2023-02-18T21:58:48.932Z,10.30
2023-02-18T22:00:57.047Z,10.30
2023-02-18T22:02:59.732Z,10.40
2023-02-18T22:05:02.271Z,10.30
2023-02-18T22:07:04.981Z,10.40
2023-02-18T22:09:07.599Z,10.30
2023-02-18T22:11:10.451Z,10.40
2023-02-18T22:13:13.188Z,10.40
2023-02-18T22:15:15.814Z,10.40
2023-02-18T22:17:18.844Z,10.40
2023-02-18T22:19:21.455Z,10.40
2023-02-18T22:21:24.517Z,10.40
2023-02-18T22:23:28.932Z,10.40
2023-02-18T22:25:31.413Z,10.40
2023-02-18T22:27:34.055Z,10.40
2023-02-18T22:29:36.539Z,10.40
2023-02-18T22:31:39.191Z,10.40
2023-02-18T22:33:42.868Z,10.40
2023-02-18T22:35:45.401Z,10.40
2023-02-18T22:37:47.897Z,10.40
2023-02-18T22:39:50.412Z,10.40
2023-02-18T22:41:52.920Z,10.40
2023-02-18T22:43:55.944Z,10.40
2023-02-18T22:46:02.050Z,10.40
2023-02-18T22:48:04.914Z,10.40
2023-02-18T22:50:08.512Z,10.40
2023-02-18T22:52:11.002Z,10.40
2023-02-18T22:54:17.755Z,10.40
2023-02-18T22:56:22.034Z,10.40
2023-02-18T22:58:24.552Z,10.40
2023-02-18T23:00:27.163Z,10.40
2023-02-18T23:02:29.676Z,10.40
2023-02-18T23:04:32.164Z,10.30
2023-02-18T23:06:35.670Z,10.40
2023-02-18T23:08:38.200Z,10.40
2023-02-18T23:10:40.728Z,10.40
2023-02-18T23:12:43.249Z,10.30
2023-02-18T23:14:45.752Z,10.30
2023-02-18T23:17:06.892Z,10.40
2023-02-18T23:19:09.452Z,10.40
2023-02-18T23:21:20.468Z,10.30
2023-02-18T23:23:22.996Z,10.40
2023-02-18T23:25:25.530Z,10.30
2023-02-18T23:27:28.100Z,10.30
2023-02-18T23:29:32.698Z,10.40
2023-02-18T23:31:37.995Z,10.40
2023-02-18T23:34:08.188Z,10.30
2023-02-18T23:36:14.129Z,10.40
2023-02-18T23:38:16.682Z,10.40
2023-02-18T23:40:19.434Z,10.40
2023-02-18T23:42:22.044Z,10.40
2023-02-18T23:44:25.519Z,10.40
2023-02-18T23:46:28.005Z,10.40
2023-02-18T23:48:30.725Z,10.40
2023-02-18T23:50:33.468Z,10.40
2023-02-18T23:52:35.977Z,10.40
2023-02-18T23:54:38.463Z,10.40
2023-02-18T23:56:41.096Z,10.40
2023-02-18T23:58:44.625Z,10.40
